createdAt,value
2022-10-04T00:05:08.790Z,983.07
2022-10-04T00:10:40.738Z,983.1
2022-10-04T00:16:12.415Z,983.0
2022-10-04T00:21:44.386Z,982.83
2022-10-04T00:27:15.762Z,982.86
2022-10-04T00:32:47.446Z,982.9
2022-10-04T00:38:19.221Z,982.76
2022-10-04T00:43:55.286Z,982.75
2022-10-04T00:49:27.011Z,982.72
2022-10-04T00:54:58.712Z,982.72
2022-10-04T01:00:30.453Z,982.74
2022-10-04T01:06:02.289Z,982.74
2022-10-04T01:11:33.869Z,982.8
2022-10-04T01:17:05.653Z,982.71
2022-10-04T01:22:37.248Z,982.64
2022-10-04T01:28:09.204Z,982.68
2022-10-04T01:33:40.801Z,982.38
2022-10-04T01:39:12.467Z,982.24
2022-10-04T01:44:50.710Z,982.15
2022-10-04T01:50:22.350Z,982.24
2022-10-04T01:55:54.145Z,982.34
2022-10-04T02:01:26.092Z,982.19
2022-10-04T02:06:57.582Z,982.25
2022-10-04T02:12:29.165Z,982.28
2022-10-04T02:18:01.259Z,982.32
2022-10-04T02:23:32.722Z,982.28
2022-10-04T02:29:04.382Z,982.23
2022-10-04T02:34:36.171Z,982.13
2022-10-04T02:40:07.946Z,982.3
2022-10-04T02:45:43.975Z,982.14
2022-10-04T02:51:15.665Z,982.13
2022-10-04T02:56:47.415Z,982.16
2022-10-04T03:02:30.690Z,982.01
2022-10-04T03:07:50.858Z,982.13
2022-10-04T03:13:22.555Z,982.09
2022-10-04T03:18:54.367Z,982.38
2022-10-04T03:24:26.117Z,982.38
2022-10-04T03:30:00.091Z,982.34
2022-10-04T03:35:29.477Z,982.34
2022-10-04T03:41:01.128Z,982.24
2022-10-04T03:46:39.232Z,982.33
2022-10-04T03:52:11.092Z,982.24
2022-10-04T03:57:43.109Z,982.17
2022-10-04T04:03:14.501Z,982.08
2022-10-04T04:08:46.142Z,982.01
2022-10-04T04:14:17.939Z,981.93
2022-10-04T04:19:49.646Z,982.12
2022-10-04T04:25:21.395Z,981.67
2022-10-04T04:30:53.066Z,981.79
2022-10-04T04:36:24.835Z,981.75
2022-10-04T04:41:56.515Z,982.01
2022-10-04T04:47:32.624Z,981.73
2022-10-04T04:53:04.676Z,982.11
2022-10-04T04:58:36.120Z,982.55
2022-10-04T05:04:07.812Z,982.49
2022-10-04T05:09:39.583Z,982.66
2022-10-04T05:15:11.926Z,982.65
2022-10-04T05:20:42.957Z,982.63
2022-10-04T05:26:15.126Z,982.56
2022-10-04T05:31:47.131Z,982.73
2022-10-04T05:37:18.098Z,982.71
2022-10-04T05:42:49.914Z,982.39
2022-10-04T05:48:27.980Z,982.38
2022-10-04T05:53:59.734Z,982.63
2022-10-04T05:59:31.534Z,982.76
2022-10-04T06:05:03.193Z,982.72
2022-10-04T06:10:34.837Z,982.86
2022-10-04T06:16:06.581Z,982.87
2022-10-04T06:21:38.347Z,982.95
2022-10-04T06:27:09.977Z,983.18
2022-10-04T06:32:41.773Z,983.15
2022-10-04T06:38:13.467Z,983.13
2022-10-04T06:43:45.222Z,983.17
2022-10-04T06:49:23.599Z,983.32
2022-10-04T06:54:55.238Z,983.36
2022-10-04T07:00:26.753Z,983.83
2022-10-04T07:05:58.596Z,984.02
2022-10-04T07:11:30.385Z,983.98
2022-10-04T07:17:01.955Z,984.39
2022-10-04T07:22:33.734Z,984.43
2022-10-04T07:28:05.614Z,984.15
2022-10-04T07:33:37.186Z,984.52
2022-10-04T07:39:08.900Z,984.51
2022-10-04T07:44:40.548Z,984.98
2022-10-04T07:50:16.757Z,984.77
2022-10-04T07:55:48.505Z,985.06
2022-10-04T08:01:20.225Z,985.05
2022-10-04T08:06:52.057Z,985.09
2022-10-04T08:12:23.709Z,985.36
2022-10-04T08:17:55.420Z,985.23
2022-10-04T08:23:27.333Z,985.16
2022-10-04T08:28:58.887Z,985.76
2022-10-04T08:34:31.114Z,986.18
2022-10-04T08:40:02.357Z,986.59
2022-10-04T08:45:34.079Z,986.26
2022-10-04T08:51:10.148Z,986.37
2022-10-04T08:56:42.738Z,986.61
2022-10-04T09:02:13.705Z,986.93
2022-10-04T09:07:45.245Z,987.43
2022-10-04T09:13:17.143Z,987.39
2022-10-04T09:18:48.854Z,987.58
2022-10-04T09:24:20.462Z,986.64
2022-10-04T09:29:52.177Z,987.45
2022-10-04T09:35:23.925Z,986.97
2022-10-04T09:40:55.991Z,987.63
2022-10-04T09:46:27.438Z,986.84
2022-10-04T09:52:05.481Z,987.15
2022-10-04T09:57:37.240Z,986.71
2022-10-04T10:03:16.222Z,987.26
2022-10-04T10:08:40.727Z,987.32
2022-10-04T10:14:12.407Z,987.47
2022-10-04T10:19:44.190Z,987.74
2022-10-04T10:25:15.987Z,987.99
2022-10-04T10:30:47.815Z,987.68
2022-10-04T10:36:19.675Z,986.86
2022-10-04T10:41:51.215Z,987.39
2022-10-04T10:47:22.975Z,987.68
2022-10-04T10:52:59.032Z,987.6
2022-10-04T10:58:30.550Z,987.26
2022-10-04T11:04:02.685Z,987.9
2022-10-04T11:09:34.123Z,987.95
2022-10-04T11:15:05.799Z,987.56
2022-10-04T11:20:37.777Z,987.45
2022-10-04T11:26:09.238Z,987.71
2022-10-04T11:31:41.176Z,987.66
2022-10-04T11:37:12.690Z,987.44
2022-10-04T11:42:44.361Z,987.62
2022-10-04T11:48:16.153Z,987.07
2022-10-04T11:53:52.126Z,987.5
2022-10-04T11:59:24.079Z,987.31
2022-10-04T12:04:55.851Z,986.94
2022-10-04T12:10:27.428Z,987.32
2022-10-04T12:15:59.338Z,987.16
2022-10-04T12:21:30.875Z,986.85
2022-10-04T12:27:02.634Z,986.34
2022-10-04T12:32:34.342Z,986.76
2022-10-04T12:38:06.271Z,987.0
2022-10-04T12:43:37.843Z,986.92
2022-10-04T12:49:09.484Z,986.92
2022-10-04T12:54:45.577Z,986.89
2022-10-04T13:00:17.448Z,986.61
2022-10-04T13:05:49.052Z,986.5
2022-10-04T13:11:20.983Z,986.44
2022-10-04T13:17:36.053Z,986.11
2022-10-04T13:22:58.219Z,986.29
2022-10-04T13:27:56.110Z,986.08
2022-10-04T13:33:27.725Z,986.33
2022-10-04T13:38:59.321Z,985.62
2022-10-04T13:44:31.185Z,985.92
2022-10-04T13:50:03.122Z,985.81
2022-10-04T13:55:39.061Z,985.38
2022-10-04T14:01:10.879Z,985.42
2022-10-04T14:06:42.415Z,985.27
2022-10-04T14:12:14.143Z,985.34
2022-10-04T14:17:45.901Z,984.83
2022-10-04T14:23:17.577Z,984.78
2022-10-04T14:28:49.354Z,984.86
2022-10-04T14:34:21.042Z,984.62
2022-10-04T14:39:52.827Z,984.53
2022-10-04T14:45:24.559Z,984.6
2022-10-04T14:50:56.579Z,984.15
2022-10-04T14:56:34.378Z,983.97
2022-10-04T15:02:06.178Z,984.04
2022-10-04T15:07:37.907Z,984.13
2022-10-04T15:13:13.117Z,983.84
2022-10-04T15:18:41.454Z,983.52
2022-10-04T15:24:13.079Z,983.71
2022-10-04T15:29:44.786Z,983.45
2022-10-04T15:35:16.445Z,983.23
2022-10-04T15:40:48.230Z,983.04
2022-10-04T15:46:20.085Z,982.95
2022-10-04T15:51:51.607Z,983.22
2022-10-04T15:57:29.799Z,982.99
2022-10-04T16:03:01.455Z,982.54
2022-10-04T16:08:33.226Z,981.97
2022-10-04T16:14:05.133Z,981.87
2022-10-04T16:19:36.645Z,981.68
2022-10-04T16:25:08.325Z,981.6
2022-10-04T16:30:40.181Z,981.46
2022-10-04T16:36:12.248Z,981.39
2022-10-04T16:41:43.686Z,981.2
2022-10-04T16:47:15.390Z,981.14
2022-10-04T16:52:47.022Z,980.93
2022-10-04T16:58:23.341Z,981.09
2022-10-04T17:03:55.216Z,981.1
2022-10-04T17:09:26.582Z,980.92
2022-10-04T17:14:58.367Z,980.67
2022-10-04T17:20:30.096Z,980.3
2022-10-04T17:26:01.747Z,980.25
2022-10-04T17:31:33.802Z,980.32
2022-10-04T17:37:05.316Z,980.54
2022-10-04T17:42:37.268Z,980.47
2022-10-04T17:48:08.663Z,980.33
2022-10-04T17:53:40.570Z,979.98
2022-10-04T17:59:16.507Z,980.19
2022-10-04T18:04:48.218Z,980.66
2022-10-04T18:10:25.181Z,980.52
2022-10-04T18:15:52.049Z,980.43
2022-10-04T18:21:23.398Z,980.17
2022-10-04T18:26:57.208Z,980.13
2022-10-04T18:32:26.992Z,980.19
2022-10-04T18:37:58.627Z,980.08
2022-10-04T18:43:30.468Z,980.26
2022-10-04T18:49:02.555Z,980.2
2022-10-04T18:54:33.889Z,980.39
2022-10-04T19:00:09.970Z,980.19
2022-10-04T19:05:41.684Z,980.24
2022-10-04T19:11:13.506Z,980.16
2022-10-04T19:16:46.283Z,980.33
2022-10-04T19:22:16.845Z,980.26
2022-10-04T19:27:48.703Z,980.21
2022-10-04T19:33:20.326Z,979.99
2022-10-04T19:38:52.153Z,980.42
2022-10-04T19:44:23.736Z,980.74
2022-10-04T19:49:55.502Z,980.84
2022-10-04T19:55:27.265Z,980.76
2022-10-04T20:01:05.378Z,980.76
2022-10-04T20:06:36.970Z,980.56
2022-10-04T20:12:09.078Z,980.73
2022-10-04T20:17:40.475Z,980.72
2022-10-04T20:23:12.210Z,980.74
2022-10-04T20:28:43.909Z,980.81
2022-10-04T20:34:15.543Z,980.96
2022-10-04T20:39:47.335Z,981.07
2022-10-04T20:45:19.083Z,981.08
2022-10-04T20:50:51.017Z,981.08
2022-10-04T20:56:22.505Z,981.0
2022-10-04T21:02:02.794Z,981.1
2022-10-04T21:07:34.388Z,981.14
2022-10-04T21:13:06.110Z,980.98
2022-10-04T21:18:37.753Z,980.92
2022-10-04T21:24:09.461Z,980.92
2022-10-04T21:29:41.237Z,980.93
2022-10-04T21:35:13.036Z,980.85
2022-10-04T21:40:44.648Z,980.85
2022-10-04T21:46:21.397Z,980.91
2022-10-04T21:51:48.109Z,980.98
2022-10-04T21:57:20.024Z,981.22
2022-10-04T22:02:56.280Z,981.18
2022-10-04T22:08:27.569Z,981.33
2022-10-04T22:13:59.323Z,981.15
2022-10-04T22:19:31.205Z,981.06
2022-10-04T22:25:03.618Z,980.98
2022-10-04T22:30:34.518Z,981.0
2022-10-04T22:36:06.416Z,980.87
2022-10-04T22:41:38.180Z,980.74
2022-10-04T22:47:09.786Z,980.98
2022-10-04T22:52:41.418Z,981.08
2022-10-04T22:58:13.202Z,981.1
2022-10-04T23:03:49.644Z,981.23
2022-10-04T23:09:21.054Z,981.51
2022-10-04T23:14:52.743Z,981.29
2022-10-04T23:20:24.526Z,981.0
2022-10-04T23:25:56.481Z,981.24
2022-10-04T23:31:28.089Z,981.27
2022-10-04T23:36:59.585Z,981.18
2022-10-04T23:42:31.338Z,981.26
2022-10-04T23:48:02.995Z,981.2
2022-10-04T23:53:34.898Z,981.26
2022-10-04T23:59:06.566Z,981.27
